createdAt,value
2022-08-16T00:04:54.939Z,3.78
2022-08-16T00:15:11.621Z,4.60
2022-08-16T00:25:16.230Z,5.05
2022-08-16T00:35:23.629Z,4.63
2022-08-16T00:45:58.091Z,4.38
2022-08-16T00:56:06.516Z,5.15
2022-08-16T01:06:39.679Z,4.50
2022-08-16T01:16:35.406Z,4.28
2022-08-16T01:26:40.742Z,4.38
2022-08-16T01:36:43.987Z,4.95
2022-08-16T01:46:49.411Z,4.93
2022-08-16T01:56:51.390Z,4.43
2022-08-16T02:06:56.869Z,6.60
2022-08-16T02:17:02.479Z,6.80
2022-08-16T02:27:08.453Z,6.75
2022-08-16T02:37:10.766Z,8.13
2022-08-16T02:47:25.389Z,9.32
2022-08-16T02:57:27.842Z,7.13
2022-08-16T03:07:37.288Z,8.68
2022-08-16T03:17:53.155Z,7.50
2022-08-16T03:27:57.376Z,8.13
2022-08-16T03:38:04.776Z,8.30
2022-08-16T03:48:36.421Z,8.05
2022-08-16T03:58:39.415Z,9.68
2022-08-16T04:08:47.882Z,8.10
2022-08-16T04:18:49.834Z,7.30
2022-08-16T04:28:55.816Z,9.50
2022-08-16T04:39:15.850Z,8.75
2022-08-16T04:49:19.648Z,8.23
2022-08-16T04:59:26.958Z,8.65
2022-08-16T05:09:36.455Z,9.27
2022-08-16T05:19:40.406Z,8.38
2022-08-16T05:30:00.014Z,8.43
2022-08-16T05:40:06.482Z,8.50
2022-08-16T05:50:10.256Z,9.13
2022-08-16T06:00:22.563Z,9.77
2022-08-16T06:10:32.440Z,8.38
2022-08-16T06:20:36.702Z,10.25
2022-08-16T06:30:43.990Z,10.68
2022-08-16T06:40:47.960Z,13.80
2022-08-16T06:50:52.662Z,12.75
2022-08-16T07:00:54.638Z,13.75
2022-08-16T07:11:01.667Z,10.77
2022-08-16T07:21:04.259Z,11.18
2022-08-16T07:31:13.030Z,29.25
2022-08-16T07:41:16.270Z,12.23
2022-08-16T07:51:19.846Z,12.95
2022-08-16T08:01:22.008Z,12.85
2022-08-16T08:11:29.836Z,13.48
2022-08-16T08:22:00.944Z,14.15
2022-08-16T08:31:57.269Z,13.10
2022-08-16T08:41:59.751Z,13.05
2022-08-16T08:52:08.192Z,15.23
2022-08-16T09:02:11.514Z,13.38
2022-08-16T09:12:35.908Z,12.82
2022-08-16T09:22:36.951Z,12.52
2022-08-16T09:32:40.274Z,11.65
2022-08-16T09:42:56.464Z,14.40
2022-08-16T09:53:04.086Z,13.98
2022-08-16T10:03:06.427Z,15.20
2022-08-16T10:13:14.280Z,17.50
2022-08-16T10:23:16.850Z,18.27
2022-08-16T10:33:20.899Z,15.20
2022-08-16T10:43:23.089Z,10.70
2022-08-16T10:53:26.682Z,12.48
2022-08-16T11:03:42.414Z,11.73
2022-08-16T11:14:10.932Z,7.25
2022-08-16T11:24:39.304Z,8.75
2022-08-16T11:35:03.857Z,6.75
2022-08-16T11:44:56.940Z,5.25
2022-08-16T11:55:00.593Z,5.18
2022-08-16T12:05:02.664Z,5.68
2022-08-16T12:15:07.256Z,4.53
2022-08-16T12:25:12.522Z,2.85
2022-08-16T12:35:21.227Z,2.83
2022-08-16T12:45:24.222Z,3.38
2022-08-16T12:55:33.785Z,1.60
2022-08-16T13:05:53.515Z,1.37
2022-08-16T13:16:05.733Z,1.90
2022-08-16T13:26:17.929Z,1.92
2022-08-16T13:36:45.695Z,1.65
2022-08-16T13:46:43.331Z,2.95
2022-08-16T13:56:47.352Z,3.40
2022-08-16T14:06:49.311Z,2.90
2022-08-16T14:16:52.681Z,2.80
2022-08-16T14:26:54.795Z,2.60
2022-08-16T14:37:00.101Z,3.03
2022-08-16T14:47:02.551Z,3.70
2022-08-16T14:57:08.086Z,3.90
2022-08-16T15:07:12.572Z,3.35
2022-08-16T15:17:16.265Z,4.18
2022-08-16T15:27:21.296Z,6.00
2022-08-16T15:37:24.859Z,5.43
2022-08-16T15:47:48.880Z,5.10
2022-08-16T15:57:59.818Z,6.03
2022-08-16T16:08:11.749Z,6.40
2022-08-16T16:18:18.023Z,8.32
2022-08-16T16:29:06.428Z,8.93
2022-08-16T16:38:47.319Z,9.63
2022-08-16T16:48:49.285Z,9.20
2022-08-16T16:58:55.201Z,9.88
2022-08-16T17:08:57.910Z,10.02
2022-08-16T17:19:14.612Z,9.25
2022-08-16T17:29:18.093Z,10.73
2022-08-16T17:39:24.419Z,10.00
2022-08-16T17:49:26.386Z,9.65
2022-08-16T17:59:30.071Z,9.55
2022-08-16T18:20:37.567Z,8.55
2022-08-16T18:30:39.868Z,14.90
2022-08-16T18:40:43.867Z,9.15
2022-08-16T18:51:03.436Z,8.77
2022-08-16T19:01:10.782Z,9.13
2022-08-16T19:11:15.654Z,13.07
2022-08-16T19:21:20.132Z,12.48
2022-08-16T19:31:25.125Z,10.13
2022-08-16T19:41:28.445Z,11.27
2022-08-16T19:51:30.615Z,11.25
2022-08-16T20:01:37.374Z,11.20
2022-08-16T20:12:05.095Z,10.32
2022-08-16T20:22:42.067Z,10.68
2022-08-16T20:32:44.587Z,10.70
2022-08-16T20:42:59.447Z,9.30
2022-08-16T20:53:02.079Z,9.65
2022-08-16T21:03:08.798Z,11.13
2022-08-16T21:13:10.853Z,10.52
2022-08-16T21:23:14.252Z,10.63
2022-08-16T21:33:18.432Z,12.02
2022-08-16T21:43:22.127Z,12.63
2022-08-16T21:53:24.609Z,12.55
2022-08-16T22:03:28.349Z,11.25
2022-08-16T22:13:31.033Z,10.77
2022-08-16T22:23:34.356Z,12.10
2022-08-16T22:33:36.384Z,12.18
2022-08-16T22:43:39.748Z,11.95
2022-08-16T22:53:41.778Z,12.13
2022-08-16T23:03:45.154Z,11.98
2022-08-16T23:13:52.661Z,11.75
2022-08-16T23:23:57.524Z,12.32
2022-08-16T23:33:59.682Z,12.50
2022-08-16T23:44:57.469Z,13.32
2022-08-16T23:54:25.563Z,11.48
